Time,TemperatureF,DewpointF,PressureIn,WindDirection,WindDirectionDegrees,WindSpeedMPH,WindSpeedGustMPH,Humidity,HourlyPrecipIn,Conditions,Clouds,dailyrainin,SoftwareType,DateUTC
2013-12-19 00:12:00,38.6,25.0,29.92,SE,134,0.0,0.0,58,0.00,,,0.00,weatherlink.com 1.10,2013-12-19 07:12:00,
2013-12-19 00:27:00,40.3,25.0,29.92,SE,134,0.0,0.0,55,0.00,,,0.00,weatherlink.com 1.10,2013-12-19 07:27:00,
2013-12-19 00:42:00,39.4,25.0,29.91,SE,134,0.0,1.0,57,0.00,,,0.00,weatherlink.com 1.10,2013-12-19 07:42:00,
2013-12-19 00:57:00,38.8,25.0,29.90,SE,134,0.0,1.0,58,0.00,,,0.00,weatherlink.com 1.10,2013-12-19 07:57:00,
2013-12-19 01:12:00,38.4,25.0,29.90,SE,134,0.0,1.0,60,0.00,,,0.00,weatherlink.com 1.10,2013-12-19 08:12:00,
2013-12-19 01:27:00,37.5,25.0,29.90,NNW,347,0.0,2.0,61,0.00,,,0.00,weatherlink.com 1.10,2013-12-19 08:27:00,
2013-12-19 01:42:00,38.2,25.0,29.89,NNW,347,0.0,1.0,60,0.00,,,0.00,weatherlink.com 1.10,2013-12-19 08:42:00,
2013-12-19 01:57:00,37.3,25.0,29.88,NNW,347,0.0,0.0,62,0.00,,,0.00,weatherlink.com 1.10,2013-12-19 08:57:00,
2013-12-19 02:12:00,36.7,25.0,29.88,NNW,347,1.0,1.0,63,0.00,,,0.00,weatherlink.com 1.10,2013-12-19 09:12:00,
2013-12-19 02:27:00,36.6,25.0,29.88,NNW,337,1.0,1.0,63,0.00,,,0.00,weatherlink.com 1.10,2013-12-19 09:27:00,
2013-12-19 02:42:00,34.9,24.0,29.87,North,352,3.0,4.0,65,0.00,,,0.00,weatherlink.com 1.10,2013-12-19 09:42:00,
2013-12-19 02:57:00,34.3,25.0,29.86,North,8,0.0,3.0,68,0.00,,,0.00,weatherlink.com 1.10,2013-12-19 09:57:00,
2013-12-19 03:28:00,34.1,24.0,29.88,NW,323,0.0,6.0,66,0.00,,,0.00,weatherlink.com 1.10,2013-12-19 10:28:00,
2013-12-19 03:43:00,33.5,24.0,29.87,NNE,28,0.0,1.0,67,0.00,,,0.00,weatherlink.com 1.10,2013-12-19 10:43:00,
2013-12-19 03:58:00,33.7,24.0,29.86,SE,125,1.0,4.0,68,0.00,,,0.00,weatherlink.com 1.10,2013-12-19 10:58:00,
2013-12-19 04:13:00,34.7,24.0,29.85,ESE,113,1.0,2.0,66,0.00,,,0.00,weatherlink.com 1.10,2013-12-19 11:13:00,
2013-12-19 04:28:00,35.2,24.0,29.85,ESE,102,1.0,1.0,64,0.00,,,0.00,weatherlink.com 1.10,2013-12-19 11:28:00,
2013-12-19 04:43:00,33.3,24.0,29.86,North,349,0.0,4.0,68,0.00,,,0.00,weatherlink.com 1.10,2013-12-19 11:43:00,
2013-12-19 04:58:00,33.2,24.0,29.85,NE,41,0.0,1.0,69,0.00,,,0.00,weatherlink.com 1.10,2013-12-19 11:58:00,
2013-12-19 05:13:00,32.7,24.0,29.85,NNE,12,0.0,0.0,70,0.00,,,0.00,weatherlink.com 1.10,2013-12-19 12:13:00,
2013-12-19 05:28:00,32.8,24.0,29.84,NNE,25,0.0,0.0,70,0.00,,,0.00,weatherlink.com 1.10,2013-12-19 12:28:00,
2013-12-19 05:43:00,33.3,24.0,29.84,NNE,25,0.0,0.0,69,0.00,,,0.00,weatherlink.com 1.10,2013-12-19 12:43:00,
2013-12-19 05:58:00,32.0,23.0,29.85,NNW,336,0.0,0.0,70,0.00,,,0.00,weatherlink.com 1.10,2013-12-19 12:58:00,
2013-12-19 06:13:00,31.5,25.0,29.84,NNW,336,0.0,0.0,77,0.00,,,0.00,weatherlink.com 1.10,2013-12-19 13:13:00,
2013-12-19 06:28:00,32.2,24.0,29.84,NNW,336,0.0,0.0,71,0.00,,,0.00,weatherlink.com 1.10,2013-12-19 13:28:00,
2013-12-19 06:43:00,31.2,23.0,29.84,NNW,336,0.0,0.0,72,0.00,,,0.00,weatherlink.com 1.10,2013-12-19 13:43:00,
2013-12-19 06:58:00,30.3,23.0,29.84,NNW,336,0.0,0.0,73,0.00,,,0.00,weatherlink.com 1.10,2013-12-19 13:58:00,
2013-12-19 07:13:00,30.4,24.0,29.83,NNW,336,0.0,0.0,77,0.00,,,0.00,weatherlink.com 1.10,2013-12-19 14:13:00,
2013-12-19 07:28:00,29.5,23.0,29.84,NNW,332,0.0,0.0,76,0.00,,,0.00,weatherlink.com 1.10,2013-12-19 14:28:00,
2013-12-19 07:43:00,30.8,24.0,29.85,NNW,336,0.0,0.0,76,0.00,,,0.00,weatherlink.com 1.10,2013-12-19 14:43:00,
2013-12-19 07:58:00,33.9,24.0,29.84,NNW,336,0.0,0.0,67,0.00,,,0.00,weatherlink.com 1.10,2013-12-19 14:58:00,
2013-12-19 08:13:00,36.4,27.0,29.84,East,85,0.0,0.0,68,0.00,,,0.00,weatherlink.com 1.10,2013-12-19 15:13:00,
2013-12-19 08:28:00,40.4,27.0,29.84,East,90,0.0,0.0,59,0.00,,,0.00,weatherlink.com 1.10,2013-12-19 15:28:00,
2013-12-19 08:43:00,38.9,25.0,29.84,North,1,0.0,0.0,58,0.00,,,0.00,weatherlink.com 1.10,2013-12-19 15:43:00,
2013-12-19 08:58:00,41.1,27.0,29.84,North,360,0.0,0.0,57,0.00,,,0.00,weatherlink.com 1.10,2013-12-19 15:58:00,
2013-12-19 09:13:00,42.7,26.0,29.85,SW,232,0.0,0.0,52,0.00,,,0.00,weatherlink.com 1.10,2013-12-19 16:13:00,
2013-12-19 09:28:00,45.0,27.0,29.84,South,188,0.0,0.0,49,0.00,,,0.00,weatherlink.com 1.10,2013-12-19 16:28:00,
2013-12-19 09:43:00,44.2,25.0,29.85,NW,321,0.0,3.0,48,0.00,,,0.00,weatherlink.com 1.10,2013-12-19 16:43:00,
2013-12-19 09:58:00,44.8,27.0,29.85,NNW,336,1.0,2.0,49,0.00,,,0.00,weatherlink.com 1.10,2013-12-19 16:58:00,
2013-12-19 10:13:00,45.8,26.0,29.85,WSW,252,0.0,2.0,47,0.00,,,0.00,weatherlink.com 1.10,2013-12-19 17:13:00,
2013-12-19 10:28:00,47.2,26.0,29.84,SW,215,3.0,6.0,43,0.00,,,0.00,weatherlink.com 1.10,2013-12-19 17:28:00,
2013-12-19 10:43:00,48.2,25.0,29.84,WSW,245,2.0,6.0,41,0.00,,,0.00,weatherlink.com 1.10,2013-12-19 17:43:00,
2013-12-19 10:58:00,49.0,26.0,29.82,West,264,1.0,6.0,41,0.00,,,0.00,weatherlink.com 1.10,2013-12-19 17:58:00,
2013-12-19 11:13:00,49.2,26.0,29.81,SW,224,1.0,5.0,41,0.00,,,0.00,weatherlink.com 1.10,2013-12-19 18:13:00,
2013-12-19 11:28:00,50.2,26.0,29.79,ESE,111,4.0,4.0,39,0.00,,,0.00,weatherlink.com 1.10,2013-12-19 18:28:00,
2013-12-19 11:44:00,50.9,26.0,29.78,WSW,245,4.0,6.0,38,0.00,,,0.00,weatherlink.com 1.10,2013-12-19 18:44:00,
2013-12-19 11:59:00,51.1,26.0,29.76,SSE,164,2.0,4.0,38,0.00,,,0.00,weatherlink.com 1.10,2013-12-19 18:59:00,
2013-12-19 12:14:00,51.5,26.0,29.74,SE,146,1.0,4.0,37,0.00,,,0.00,weatherlink.com 1.10,2013-12-19 19:14:00,
2013-12-19 12:29:00,52.2,26.0,29.73,WSW,248,2.0,3.0,37,0.00,,,0.00,weatherlink.com 1.10,2013-12-19 19:29:00,
2013-12-19 12:44:00,52.5,25.0,29.72,SSE,167,3.0,5.0,35,0.00,,,0.00,weatherlink.com 1.10,2013-12-19 19:44:00,
2013-12-19 12:59:00,54.1,25.0,29.70,SE,132,3.0,4.0,33,0.00,,,0.00,weatherlink.com 1.10,2013-12-19 19:59:00,
2013-12-19 13:14:00,54.8,25.0,29.70,SW,236,2.0,4.0,32,0.00,,,0.00,weatherlink.com 1.10,2013-12-19 20:14:00,
2013-12-19 13:29:00,55.0,25.0,29.69,WSW,241,2.0,4.0,31,0.00,,,0.00,weatherlink.com 1.10,2013-12-19 20:29:00,
2013-12-19 13:44:00,55.5,24.0,29.69,ESE,118,2.0,6.0,30,0.00,,,0.00,weatherlink.com 1.10,2013-12-19 20:44:00,
2013-12-19 13:59:00,56.0,24.0,29.68,SE,145,1.0,3.0,29,0.00,,,0.00,weatherlink.com 1.10,2013-12-19 20:59:00,
2013-12-19 14:14:00,57.7,25.0,29.68,SW,226,0.0,2.0,28,0.00,,,0.00,weatherlink.com 1.10,2013-12-19 21:14:00,
2013-12-19 14:29:00,57.5,24.0,29.67,SSE,150,2.0,6.0,27,0.00,,,0.00,weatherlink.com 1.10,2013-12-19 21:29:00,
2013-12-19 14:44:00,57.5,24.0,29.67,South,176,1.0,5.0,28,0.00,,,0.00,weatherlink.com 1.10,2013-12-19 21:44:00,
2013-12-19 14:59:00,57.2,25.0,29.66,SSW,205,2.0,4.0,29,0.00,,,0.00,weatherlink.com 1.10,2013-12-19 21:59:00,
2013-12-19 15:14:00,57.8,26.0,29.66,SW,229,1.0,3.0,29,0.00,,,0.00,weatherlink.com 1.10,2013-12-19 22:14:00,
2013-12-19 15:29:00,57.6,25.0,29.66,SSW,204,2.0,5.0,28,0.00,,,0.00,weatherlink.com 1.10,2013-12-19 22:29:00,
2013-12-19 15:44:00,56.4,24.0,29.66,ESE,123,2.0,4.0,29,0.00,,,0.00,weatherlink.com 1.10,2013-12-19 22:44:00,
2013-12-19 15:59:00,58.1,25.0,29.66,SW,232,0.0,3.0,28,0.00,,,0.00,weatherlink.com 1.10,2013-12-19 22:59:00,
2013-12-19 16:14:00,58.8,26.0,29.66,SW,226,1.0,1.0,28,0.00,,,0.00,weatherlink.com 1.10,2013-12-19 23:14:00,
2013-12-19 16:29:00,58.4,24.0,29.66,SW,226,1.0,1.0,27,0.00,,,0.00,weatherlink.com 1.10,2013-12-19 23:29:00,
2013-12-19 16:44:00,57.1,25.0,29.67,SW,226,0.0,0.0,29,0.00,,,0.00,weatherlink.com 1.10,2013-12-19 23:44:00,
2013-12-19 16:59:00,55.1,25.0,29.66,SW,226,0.0,0.0,31,0.00,,,0.00,weatherlink.com 1.10,2013-12-19 23:59:00,
2013-12-19 17:14:00,53.0,24.0,29.66,SW,228,0.0,1.0,33,0.00,,,0.00,weatherlink.com 1.10,2013-12-20 00:14:00,
2013-12-19 17:29:00,51.3,25.0,29.67,SW,226,0.0,0.0,36,0.00,,,0.00,weatherlink.com 1.10,2013-12-20 00:29:00,
2013-12-19 17:44:00,51.0,24.0,29.67,East,98,1.0,3.0,35,0.00,,,0.00,weatherlink.com 1.10,2013-12-20 00:44:00,
2013-12-19 17:59:00,50.8,24.0,29.66,ESE,120,0.0,2.0,35,0.00,,,0.00,weatherlink.com 1.10,2013-12-20 00:59:00,
2013-12-19 18:14:00,50.9,24.0,29.66,ESE,115,2.0,2.0,35,0.00,,,0.00,weatherlink.com 1.10,2013-12-20 01:14:00,
2013-12-19 18:29:00,51.0,24.0,29.66,SE,129,2.0,3.0,35,0.00,,,0.00,weatherlink.com 1.10,2013-12-20 01:29:00,
2013-12-19 18:44:00,51.0,24.0,29.66,SE,134,3.0,7.0,35,0.00,,,0.00,weatherlink.com 1.10,2013-12-20 01:44:00,
2013-12-19 18:59:00,50.6,22.0,29.66,WSW,242,2.0,6.0,32,0.00,,,0.00,weatherlink.com 1.10,2013-12-20 01:59:00,
2013-12-19 19:14:00,47.9,23.0,29.67,West,279,0.0,2.0,38,0.00,,,0.00,weatherlink.com 1.10,2013-12-20 02:14:00,
2013-12-19 19:29:00,45.7,23.0,29.67,South,183,0.0,1.0,41,0.00,,,0.00,weatherlink.com 1.10,2013-12-20 02:29:00,
2013-12-19 19:44:00,44.1,23.0,29.68,South,183,0.0,0.0,43,0.00,,,0.00,weatherlink.com 1.10,2013-12-20 02:44:00,
2013-12-19 19:59:00,42.7,23.0,29.69,South,187,0.0,1.0,45,0.00,,,0.00,weatherlink.com 1.10,2013-12-20 02:59:00,
2013-12-19 20:14:00,42.5,21.0,29.70,SSE,150,1.0,3.0,43,0.00,,,0.00,weatherlink.com 1.10,2013-12-20 03:14:00,
2013-12-19 20:29:00,42.3,21.0,29.70,SSW,192,0.0,1.0,42,0.00,,,0.00,weatherlink.com 1.10,2013-12-20 03:29:00,
2013-12-19 20:44:00,42.7,21.0,29.71,SSE,149,0.0,1.0,42,0.00,,,0.00,weatherlink.com 1.10,2013-12-20 03:44:00,
2013-12-19 20:59:00,42.5,19.0,29.71,SE,145,5.0,5.0,39,0.00,,,0.00,weatherlink.com 1.10,2013-12-20 03:59:00,
2013-12-19 21:14:00,43.0,18.0,29.72,SSE,152,2.0,6.0,37,0.00,,,0.00,weatherlink.com 1.10,2013-12-20 04:14:00,
2013-12-19 21:29:00,42.5,18.0,29.73,SE,134,2.0,5.0,37,0.00,,,0.00,weatherlink.com 1.10,2013-12-20 04:29:00,
2013-12-19 21:44:00,42.5,18.0,29.73,SE,145,2.0,3.0,37,0.00,,,0.00,weatherlink.com 1.10,2013-12-20 04:44:00,
2013-12-19 22:00:00,42.1,18.0,29.73,ESE,110,4.0,6.0,38,0.00,,,0.00,weatherlink.com 1.10,2013-12-20 05:00:00,
2013-12-19 22:15:00,41.8,18.0,29.73,SE,139,2.0,6.0,38,0.00,,,0.00,weatherlink.com 1.10,2013-12-20 05:15:00,
2013-12-19 22:30:00,41.5,18.0,29.74,SE,139,1.0,3.0,39,0.00,,,0.00,weatherlink.com 1.10,2013-12-20 05:30:00,
2013-12-19 22:45:00,41.5,18.0,29.74,SSE,148,0.0,4.0,39,0.00,,,0.00,weatherlink.com 1.10,2013-12-20 05:45:00,
2013-12-19 23:00:00,41.1,18.0,29.74,SE,141,0.0,2.0,40,0.00,,,0.00,weatherlink.com 1.10,2013-12-20 06:00:00,
2013-12-19 23:15:00,40.0,18.0,29.74,ESE,121,1.0,3.0,42,0.00,,,0.00,weatherlink.com 1.10,2013-12-20 06:15:00,
2013-12-19 23:30:00,40.0,19.0,29.74,ESE,121,2.0,5.0,43,0.00,,,0.00,weatherlink.com 1.10,2013-12-20 06:30:00,
2013-12-19 23:45:00,40.2,19.0,29.74,ESE,115,4.0,4.0,42,0.00,,,0.00,weatherlink.com 1.10,2013-12-20 06:45:00,